createdAt,value
2023-02-02T00:00:01.234Z,98976.41
2023-02-02T00:02:32.595Z,98976.02
2023-02-02T00:05:04.301Z,98967.04
2023-02-02T00:07:36.225Z,98969.19
2023-02-02T00:10:08.890Z,98959.54
2023-02-02T00:12:40.517Z,98959.30
2023-02-02T00:15:13.795Z,98961.99
2023-02-02T00:17:45.495Z,98960.41
2023-02-02T00:20:17.604Z,98965.34
2023-02-02T00:22:50.184Z,98968.40
2023-02-02T00:25:25.108Z,98963.80
2023-02-02T00:27:57.668Z,98961.55
2023-02-02T00:30:29.552Z,98964.68
2023-02-02T00:33:01.286Z,98961.74
2023-02-02T00:35:32.806Z,98962.80
2023-02-02T00:38:04.330Z,98956.45
2023-02-02T00:40:36.120Z,98953.67
2023-02-02T00:43:07.721Z,98957.98
2023-02-02T00:45:39.301Z,98956.77
2023-02-02T00:48:11.524Z,98953.90
2023-02-02T00:50:43.310Z,98953.27
2023-02-02T00:53:15.030Z,98953.55
2023-02-02T00:55:46.609Z,98958.67
2023-02-02T00:58:18.251Z,98956.53
2023-02-02T01:00:49.725Z,98956.48
2023-02-02T01:03:21.576Z,98958.88
2023-02-02T01:05:53.977Z,98957.40
2023-02-02T01:08:25.823Z,98953.98
2023-02-02T01:11:00.674Z,98953.02
2023-02-02T01:13:30.356Z,98953.14
2023-02-02T01:16:03.370Z,98951.11
2023-02-02T01:18:35.153Z,98947.70
2023-02-02T01:21:09.189Z,98949.15
2023-02-02T01:23:41.986Z,98953.85
2023-02-02T01:26:15.309Z,98956.49
2023-02-02T01:28:46.963Z,98955.08
2023-02-02T01:31:20.312Z,98959.88
2023-02-02T01:33:53.282Z,98955.39
2023-02-02T01:36:25.693Z,98955.70
2023-02-02T01:38:57.432Z,98962.70
2023-02-02T01:41:29.726Z,98958.78
2023-02-02T01:44:03.868Z,98955.90
2023-02-02T01:46:36.865Z,98953.83
2023-02-02T01:49:12.864Z,98950.22
2023-02-02T01:51:49.353Z,98951.35
2023-02-02T01:54:33.243Z,98947.98
2023-02-02T01:57:08.451Z,98943.55
2023-02-02T01:59:40.545Z,98942.55
2023-02-02T02:02:12.760Z,98939.59
2023-02-02T02:04:45.351Z,98942.77
2023-02-02T02:07:16.993Z,98938.88
2023-02-02T02:09:49.160Z,98938.50
2023-02-02T02:12:20.787Z,98938.46
2023-02-02T02:15:11.574Z,98939.20
2023-02-02T02:17:57.519Z,98938.80
2023-02-02T02:21:06.647Z,98941.31
2023-02-02T02:24:32.506Z,98945.11
2023-02-02T02:27:33.348Z,98950.89
2023-02-02T02:30:49.241Z,98943.67
2023-02-02T02:33:27.837Z,98942.90
2023-02-02T02:36:09.850Z,98941.80
2023-02-02T02:38:48.837Z,98944.27
2023-02-02T02:41:24.317Z,98941.95
2023-02-02T02:44:01.193Z,98942.83
2023-02-02T02:46:33.484Z,98944.59
2023-02-02T02:49:05.860Z,98947.57
2023-02-02T02:51:54.482Z,98948.08
2023-02-02T02:54:29.990Z,98945.67
2023-02-02T02:57:20.226Z,98945.39
2023-02-02T02:59:59.043Z,98946.92
2023-02-02T03:02:40.095Z,98945.81
2023-02-02T03:05:24.576Z,98951.51
2023-02-02T03:08:03.791Z,98955.17
2023-02-02T03:10:36.774Z,98954.98
2023-02-02T03:13:11.967Z,98962.20
2023-02-02T03:15:46.373Z,98956.98
2023-02-02T03:18:20.796Z,98960.27
2023-02-02T03:20:52.271Z,98960.89
2023-02-02T03:23:23.953Z,98962.34
2023-02-02T03:25:55.923Z,98959.83
2023-02-02T03:28:29.232Z,98966.23
2023-02-02T03:31:02.760Z,98968.64
2023-02-02T03:33:37.311Z,98968.96
2023-02-02T03:36:10.050Z,98968.39
2023-02-02T03:38:41.580Z,98966.48
2023-02-02T03:41:13.277Z,98970.70
2023-02-02T03:43:44.723Z,98968.23
2023-02-02T03:46:16.314Z,98971.84
2023-02-02T03:48:47.799Z,98966.90
2023-02-02T03:51:19.395Z,98967.98
2023-02-02T03:53:50.952Z,98967.02
2023-02-02T03:56:22.503Z,98969.75
2023-02-02T03:58:53.937Z,98975.25
2023-02-02T04:01:30.843Z,98974.70
2023-02-02T04:04:02.588Z,98974.92
2023-02-02T04:06:34.047Z,98973.70
2023-02-02T04:09:05.632Z,98977.56
2023-02-02T04:11:38.864Z,98977.48
2023-02-02T04:14:11.244Z,98974.55
2023-02-02T04:16:42.656Z,98972.73
2023-02-02T04:19:14.485Z,98973.00
2023-02-02T04:21:45.990Z,98971.08
2023-02-02T04:24:18.016Z,98969.85
2023-02-02T04:26:49.845Z,98966.54
2023-02-02T04:29:21.427Z,98964.29
2023-02-02T04:31:52.880Z,98968.67
2023-02-02T04:34:24.509Z,98965.24
2023-02-02T04:36:59.929Z,98966.04
2023-02-02T04:39:36.173Z,98963.21
2023-02-02T04:42:11.939Z,98959.52
2023-02-02T04:44:44.320Z,98957.02
2023-02-02T04:47:15.848Z,98958.59
2023-02-02T04:49:47.608Z,98952.90
2023-02-02T04:52:19.119Z,98949.52
2023-02-02T04:54:50.858Z,98957.80
2023-02-02T04:57:22.356Z,98959.37
2023-02-02T04:59:54.158Z,98949.68
2023-02-02T05:02:25.652Z,98951.16
2023-02-02T05:04:57.225Z,98959.77
2023-02-02T05:07:28.849Z,98954.02
2023-02-02T05:10:00.419Z,98946.82
2023-02-02T05:12:32.122Z,98945.77
2023-02-02T05:15:03.967Z,98945.84
2023-02-02T05:17:35.634Z,98944.16
2023-02-02T05:20:08.267Z,98948.60
2023-02-02T05:22:39.799Z,98941.94
2023-02-02T05:25:12.400Z,98943.20
2023-02-02T05:27:46.428Z,98940.98
2023-02-02T05:30:19.028Z,98936.05
2023-02-02T05:32:51.083Z,98937.48
2023-02-02T05:35:22.776Z,98931.52
2023-02-02T05:37:55.176Z,98927.36
2023-02-02T05:40:26.833Z,98924.27
2023-02-02T05:42:58.523Z,98920.90
2023-02-02T05:45:30.286Z,98917.77
2023-02-02T05:48:02.637Z,98918.64
2023-02-02T05:50:34.233Z,98914.33
2023-02-02T05:53:06.170Z,98914.24
2023-02-02T05:55:37.637Z,98910.91
2023-02-02T05:58:09.775Z,98909.92
2023-02-02T06:00:41.258Z,98910.09
2023-02-02T06:03:13.501Z,98909.61
2023-02-02T06:05:45.382Z,98906.48
2023-02-02T06:08:16.830Z,98899.91
2023-02-02T06:10:48.688Z,98901.84
2023-02-02T06:13:20.790Z,98895.39
2023-02-02T06:15:52.768Z,98895.59
2023-02-02T06:18:24.358Z,98894.72
2023-02-02T06:21:01.185Z,98891.75
2023-02-02T06:23:34.165Z,98889.13
2023-02-02T06:26:08.766Z,98883.70
2023-02-02T06:28:40.450Z,98884.27
2023-02-02T06:31:13.732Z,98878.95
2023-02-02T06:33:45.390Z,98875.18
2023-02-02T06:36:17.152Z,98876.98
2023-02-02T06:38:52.856Z,98869.98
2023-02-02T06:41:25.064Z,98871.17
2023-02-02T06:43:56.646Z,98869.27
2023-02-02T06:46:28.263Z,98870.93
2023-02-02T06:48:59.870Z,98869.52
2023-02-02T06:51:31.573Z,98862.14
2023-02-02T06:54:04.167Z,98862.70
2023-02-02T06:56:35.756Z,98859.71
2023-02-02T06:59:07.351Z,98857.86
2023-02-02T07:01:38.979Z,98858.59
2023-02-02T07:04:10.368Z,98855.99
2023-02-02T07:06:42.527Z,98856.67
2023-02-02T07:09:14.205Z,98854.38
2023-02-02T07:11:45.738Z,98851.73
2023-02-02T07:14:17.660Z,98848.23
2023-02-02T07:16:49.206Z,98844.75
2023-02-02T07:19:20.724Z,98843.83
2023-02-02T07:21:52.291Z,98839.48
2023-02-02T07:24:25.672Z,98835.99
2023-02-02T07:26:58.554Z,98832.66
2023-02-02T07:29:30.311Z,98829.61
2023-02-02T07:32:03.412Z,98827.06
2023-02-02T07:34:35.034Z,98828.23
2023-02-02T07:37:06.592Z,98823.60
2023-02-02T07:39:38.125Z,98822.88
2023-02-02T07:42:12.020Z,98830.01
2023-02-02T07:44:43.511Z,98829.86
2023-02-02T07:47:15.113Z,98831.59
2023-02-02T07:49:46.799Z,98834.25
2023-02-02T07:52:18.476Z,98841.91
2023-02-02T07:54:50.668Z,98838.32
2023-02-02T07:57:22.268Z,98847.43
2023-02-02T07:59:54.923Z,98841.67
2023-02-02T08:02:26.624Z,98842.95
2023-02-02T08:04:58.184Z,98844.04
2023-02-02T08:07:32.768Z,98848.29
2023-02-02T08:10:05.796Z,98855.77
2023-02-02T08:12:37.470Z,98857.17
2023-02-02T08:15:12.659Z,98862.41
2023-02-02T08:17:50.363Z,98866.28
2023-02-02T08:20:22.265Z,98866.77
2023-02-02T08:22:53.976Z,98863.44
2023-02-02T08:25:26.297Z,98867.67
2023-02-02T08:28:01.599Z,98870.33
2023-02-02T08:30:36.052Z,98873.26
2023-02-02T08:33:07.861Z,98885.78
2023-02-02T08:35:44.065Z,98885.42
2023-02-02T08:38:15.608Z,98888.80
2023-02-02T08:40:47.257Z,98895.30
2023-02-02T08:43:18.959Z,98894.19
2023-02-02T08:46:03.925Z,98899.36
2023-02-02T08:48:37.198Z,98903.71
2023-02-02T08:51:11.683Z,98908.77
2023-02-02T08:53:43.377Z,98913.30
2023-02-02T08:56:16.842Z,98915.02
2023-02-02T08:58:50.926Z,98918.81
2023-02-02T09:01:24.499Z,98921.77
2023-02-02T09:03:59.960Z,98926.82
2023-02-02T09:06:33.869Z,98932.48
2023-02-02T09:09:06.466Z,98934.43
2023-02-02T09:11:39.188Z,98941.98
2023-02-02T09:14:12.537Z,98945.85
2023-02-02T09:16:44.443Z,98951.30
2023-02-02T09:19:16.222Z,98953.67
2023-02-02T09:21:47.882Z,98958.06
2023-02-02T09:24:19.640Z,98964.34
2023-02-02T09:26:51.386Z,98968.73
2023-02-02T09:29:23.240Z,98976.02
2023-02-02T09:31:57.622Z,98979.54
2023-02-02T09:34:29.732Z,98987.23
2023-02-02T09:37:01.442Z,98990.42
2023-02-02T09:39:33.322Z,98997.15
2023-02-02T09:42:17.733Z,99001.11
2023-02-02T09:45:01.309Z,99005.68
2023-02-02T09:47:48.996Z,99014.88
2023-02-02T09:50:25.210Z,99025.52
2023-02-02T09:53:00.424Z,99024.61
2023-02-02T09:55:37.290Z,99032.27
2023-02-02T09:58:16.271Z,99037.89
2023-02-02T10:00:54.652Z,99044.63
2023-02-02T10:03:31.951Z,99049.73
2023-02-02T10:06:08.013Z,99051.23
2023-02-02T10:08:45.380Z,99055.30
2023-02-02T10:11:35.141Z,99062.27
2023-02-02T10:14:14.656Z,99073.08
2023-02-02T10:16:48.496Z,99072.60
2023-02-02T10:19:20.948Z,99077.39
2023-02-02T10:22:02.270Z,99080.72
2023-02-02T10:24:36.745Z,99089.33
2023-02-02T10:27:13.530Z,99092.02
2023-02-02T10:29:55.230Z,99092.95
2023-02-02T10:32:31.385Z,99093.52
2023-02-02T10:35:22.409Z,99100.52
2023-02-02T10:37:59.290Z,99108.81
2023-02-02T10:40:43.185Z,99110.33
2023-02-02T10:43:48.310Z,99114.38
2023-02-02T10:46:24.530Z,99118.45
2023-02-02T10:49:12.942Z,99119.75
2023-02-02T10:51:46.991Z,99130.61
2023-02-02T10:54:50.053Z,99133.04
2023-02-02T10:57:39.398Z,99132.64
2023-02-02T11:00:23.136Z,99139.58
2023-02-02T11:02:56.338Z,99140.46
2023-02-02T11:05:46.733Z,99141.92
2023-02-02T11:08:21.215Z,99151.01
2023-02-02T11:10:55.009Z,99157.02
2023-02-02T11:13:32.110Z,99162.14
2023-02-02T11:16:38.887Z,99164.45
2023-02-02T11:19:30.655Z,99165.59
2023-02-02T11:22:03.720Z,99172.73
2023-02-02T11:24:42.232Z,99170.04
2023-02-02T11:27:21.509Z,99173.26
2023-02-02T11:29:55.637Z,99179.66
2023-02-02T11:32:33.317Z,99188.52
2023-02-02T11:35:26.251Z,99192.09
2023-02-02T11:38:11.699Z,99194.96
2023-02-02T11:40:46.768Z,99205.08
2023-02-02T11:43:27.498Z,99206.84
2023-02-02T11:46:03.551Z,99210.98
2023-02-02T11:48:38.140Z,99216.92
2023-02-02T11:51:09.730Z,99218.55
2023-02-02T11:53:47.016Z,99221.02
2023-02-02T11:56:26.691Z,99226.20
2023-02-02T11:59:04.093Z,99234.55
2023-02-02T12:01:39.984Z,99242.11
2023-02-02T12:04:28.098Z,99241.73
2023-02-02T12:06:59.792Z,99248.98
2023-02-02T12:09:31.598Z,99259.89
2023-02-02T12:12:10.214Z,99260.77
2023-02-02T12:14:51.320Z,99264.42
2023-02-02T12:17:39.224Z,99276.19
2023-02-02T12:20:25.031Z,99281.34
2023-02-02T12:23:20.729Z,99296.57
2023-02-02T12:26:00.781Z,99297.98
2023-02-02T12:28:46.637Z,99304.64
2023-02-02T12:31:27.555Z,99307.77
2023-02-02T12:34:05.838Z,99315.84
2023-02-02T12:36:49.952Z,99318.79
2023-02-02T12:39:45.367Z,99325.76
2023-02-02T12:42:37.583Z,99328.88
2023-02-02T12:45:35.103Z,99340.79
2023-02-02T12:48:30.696Z,99343.25
2023-02-02T12:51:05.695Z,99351.71
2023-02-02T12:54:35.136Z,99352.96
2023-02-02T12:56:57.665Z,99360.03
2023-02-02T12:59:47.840Z,99367.23
2023-02-02T13:02:30.405Z,99373.94
2023-02-02T13:08:14.349Z,99385.88
2023-02-02T13:10:49.149Z,99391.29
2023-02-02T13:13:20.548Z,99400.97
2023-02-02T13:15:54.505Z,99403.35
2023-02-02T13:18:31.744Z,99412.56
2023-02-02T13:21:08.521Z,99412.08
2023-02-02T13:23:45.866Z,99413.41
2023-02-02T13:26:21.581Z,99420.81
2023-02-02T13:28:57.031Z,99427.60
2023-02-02T13:31:35.409Z,99431.55
2023-02-02T13:34:15.769Z,99439.02
2023-02-02T13:36:52.630Z,99440.20
2023-02-02T13:39:31.857Z,99445.68
2023-02-02T13:42:04.571Z,99448.55
2023-02-02T13:44:42.676Z,99455.24
2023-02-02T13:47:18.220Z,99456.77
2023-02-02T13:49:55.520Z,99469.83
2023-02-02T13:52:47.656Z,99475.70
2023-02-02T13:55:39.472Z,99479.80
2023-02-02T13:58:36.228Z,99489.24
2023-02-02T14:01:11.231Z,99490.77
2023-02-02T14:03:45.141Z,99492.59
2023-02-02T14:06:19.618Z,99498.83
2023-02-02T14:08:57.434Z,99498.87
2023-02-02T14:11:33.998Z,99503.71
2023-02-02T14:14:35.457Z,99509.02
2023-02-02T14:17:29.298Z,99519.70
2023-02-02T14:20:03.746Z,99532.67
2023-02-02T14:22:48.190Z,99542.22
2023-02-02T14:26:05.725Z,99546.87
2023-02-02T14:28:49.684Z,99550.95
2023-02-02T14:31:31.742Z,99555.59
2023-02-02T14:34:34.003Z,99557.92
2023-02-02T14:37:50.235Z,99558.30
2023-02-02T14:40:31.572Z,99565.14
2023-02-02T14:43:36.689Z,99567.46
2023-02-02T14:46:36.820Z,99571.81
2023-02-02T14:49:20.703Z,99582.33
2023-02-02T14:51:59.133Z,99593.28
2023-02-02T14:54:37.471Z,99609.89
2023-02-02T14:57:25.133Z,99613.50
2023-02-02T14:59:59.383Z,99623.50
2023-02-02T15:02:38.246Z,99621.62
2023-02-02T15:05:46.539Z,99630.79
2023-02-02T15:08:25.969Z,99638.56
2023-02-02T15:11:32.447Z,99647.64
2023-02-02T15:14:10.713Z,99649.33
2023-02-02T15:16:47.053Z,99654.73
2023-02-02T15:19:28.732Z,99663.59
2023-02-02T15:22:08.916Z,99674.66
2023-02-02T15:24:41.305Z,99678.45
2023-02-02T15:27:20.349Z,99681.77
2023-02-02T15:29:56.558Z,99687.56
2023-02-02T15:32:29.371Z,99691.55
2023-02-02T15:35:04.748Z,99695.63
2023-02-02T15:37:40.570Z,99703.86
2023-02-02T15:40:17.694Z,99712.35
2023-02-02T15:42:55.351Z,99727.37
2023-02-02T15:45:44.697Z,99738.76
2023-02-02T15:48:30.093Z,99749.06
2023-02-02T15:51:05.078Z,99755.52
2023-02-02T15:53:49.929Z,99756.39
2023-02-02T15:56:32.610Z,99765.42
2023-02-02T15:59:04.336Z,99773.73
2023-02-02T16:01:49.236Z,99784.05
2023-02-02T16:04:24.004Z,99793.98
2023-02-02T16:06:54.005Z,99802.70
2023-02-02T16:09:31.856Z,99809.42
2023-02-02T16:12:04.741Z,99817.30
2023-02-02T16:14:40.582Z,99825.64
2023-02-02T16:17:21.830Z,99831.80
2023-02-02T16:19:59.311Z,99836.74
2023-02-02T16:22:31.268Z,99839.63
2023-02-02T16:25:07.788Z,99845.33
2023-02-02T16:27:42.486Z,99856.48
2023-02-02T16:30:27.579Z,99858.55
2023-02-02T16:32:57.345Z,99860.97
2023-02-02T16:35:36.193Z,99864.84
2023-02-02T16:38:24.965Z,99870.86
2023-02-02T16:41:08.372Z,99884.80
2023-02-02T16:43:41.691Z,99882.83
2023-02-02T16:46:15.386Z,99889.77
2023-02-02T16:48:56.994Z,99892.03
2023-02-02T16:51:33.817Z,99896.90
2023-02-02T16:54:19.605Z,99903.23
2023-02-02T16:56:53.339Z,99911.18
2023-02-02T16:59:27.906Z,99912.64
2023-02-02T17:02:02.671Z,99918.61
2023-02-02T17:04:34.340Z,99920.48
2023-02-02T17:07:11.981Z,99928.98
2023-02-02T17:09:45.620Z,99935.21
2023-02-02T17:12:34.553Z,99942.33
2023-02-02T17:15:35.458Z,99949.34
2023-02-02T17:18:11.462Z,99957.30
2023-02-02T17:20:45.762Z,99965.56
2023-02-02T17:23:21.026Z,99971.65
2023-02-02T17:25:53.446Z,99976.29
2023-02-02T17:28:28.555Z,99982.46
2023-02-02T17:31:03.995Z,99983.29
2023-02-02T17:33:37.269Z,99987.92
2023-02-02T17:36:10.757Z,99995.02
2023-02-02T17:38:43.662Z,100003.56
2023-02-02T17:41:15.873Z,100007.05
2023-02-02T17:43:47.979Z,100013.13
2023-02-02T17:46:20.197Z,100024.66
2023-02-02T17:48:53.139Z,100035.96
2023-02-02T17:51:25.896Z,100034.69
2023-02-02T17:54:00.635Z,100035.05
2023-02-02T17:56:30.460Z,100041.81
2023-02-02T17:59:03.114Z,100048.65
2023-02-02T18:01:38.290Z,100048.36
2023-02-02T18:04:14.546Z,100060.34
2023-02-02T18:06:46.390Z,100065.92
2023-02-02T18:09:18.040Z,100071.53
2023-02-02T18:11:51.077Z,100074.95
2023-02-02T18:14:22.737Z,100085.74
2023-02-02T18:17:08.508Z,100091.25
2023-02-02T18:19:45.204Z,100096.27
2023-02-02T18:22:17.992Z,100103.47
2023-02-02T18:24:50.659Z,100108.66
2023-02-02T18:27:23.509Z,100115.09
2023-02-02T18:29:59.385Z,100119.16
2023-02-02T18:32:32.804Z,100127.75
2023-02-02T18:35:12.447Z,100125.30
2023-02-02T18:37:45.247Z,100131.14
2023-02-02T18:40:24.260Z,100140.90
2023-02-02T18:42:57.164Z,100144.00
2023-02-02T18:45:33.031Z,100148.90
2023-02-02T18:48:07.788Z,100150.25
2023-02-02T18:50:39.844Z,100157.60
2023-02-02T18:53:15.986Z,100161.38
2023-02-02T18:55:49.938Z,100164.13
2023-02-02T18:58:28.042Z,100170.11
2023-02-02T19:01:00.833Z,100174.91
2023-02-02T19:03:37.024Z,100179.38
2023-02-02T19:06:28.258Z,100182.67
2023-02-02T19:09:01.641Z,100187.27
2023-02-02T19:11:39.583Z,100198.52
2023-02-02T19:14:17.665Z,100208.83
2023-02-02T19:16:52.997Z,100214.29
2023-02-02T19:19:32.555Z,100215.41
2023-02-02T19:22:11.207Z,100220.08
2023-02-02T19:24:44.380Z,100221.77
2023-02-02T19:27:22.135Z,100228.52
2023-02-02T19:30:00.297Z,100228.35
2023-02-02T19:32:40.892Z,100237.98
2023-02-02T19:35:21.799Z,100240.97
2023-02-02T19:38:01.646Z,100244.38
2023-02-02T19:40:35.541Z,100253.27
2023-02-02T19:43:20.440Z,100259.71
2023-02-02T19:45:53.269Z,100268.52
2023-02-02T19:48:34.907Z,100283.09
2023-02-02T19:51:35.813Z,100284.36
2023-02-02T19:54:20.581Z,100288.88
2023-02-02T19:56:55.573Z,100295.05
2023-02-02T19:59:35.317Z,100307.21
2023-02-02T20:02:40.044Z,100311.64
2023-02-02T20:05:20.142Z,100307.04
2023-02-02T20:07:58.246Z,100316.79
2023-02-02T20:10:39.558Z,100321.58
2023-02-02T20:13:26.583Z,100329.61
2023-02-02T20:16:04.282Z,100324.13
2023-02-02T20:18:46.486Z,100328.49
2023-02-02T20:21:31.322Z,100333.15
2023-02-02T20:24:04.830Z,100346.31
2023-02-02T20:26:40.210Z,100354.30
2023-02-02T20:29:22.918Z,100351.52
2023-02-02T20:32:03.142Z,100358.17
2023-02-02T20:34:38.629Z,100361.59
2023-02-02T20:37:29.375Z,100363.29
2023-02-02T20:40:04.569Z,100370.60
2023-02-02T20:42:38.386Z,100373.70
2023-02-02T20:45:11.011Z,100380.10
2023-02-02T20:47:45.542Z,100383.09
2023-02-02T20:50:21.416Z,100390.79
2023-02-02T20:52:54.450Z,100392.44
2023-02-02T20:55:28.935Z,100397.80
2023-02-02T20:58:02.146Z,100407.66
2023-02-02T21:01:08.624Z,100409.29
2023-02-02T21:04:14.387Z,100410.95
2023-02-02T21:06:48.495Z,100417.92
2023-02-02T21:09:20.966Z,100425.47
2023-02-02T21:11:53.718Z,100426.39
2023-02-02T21:14:25.896Z,100435.69
2023-02-02T21:17:12.882Z,100439.09
2023-02-02T21:19:48.660Z,100441.01
2023-02-02T21:22:22.323Z,100446.14
2023-02-02T21:24:55.155Z,100450.79
2023-02-02T21:27:26.869Z,100456.66
2023-02-02T21:29:58.837Z,100462.23
2023-02-02T21:32:30.420Z,100464.98
2023-02-02T21:35:02.834Z,100467.73
2023-02-02T21:37:36.809Z,100475.35
2023-02-02T21:40:17.293Z,100482.59
2023-02-02T21:42:51.422Z,100486.56
2023-02-02T21:45:35.891Z,100492.77
2023-02-02T21:48:22.121Z,100495.78
2023-02-02T21:50:53.667Z,100503.05
2023-02-02T21:53:26.679Z,100498.86
2023-02-02T21:56:00.691Z,100499.83
2023-02-02T21:58:38.612Z,100502.85
2023-02-02T22:01:28.011Z,100502.11
2023-02-02T22:03:59.557Z,100511.13
2023-02-02T22:06:34.687Z,100511.54
2023-02-02T22:09:18.963Z,100510.89
2023-02-02T22:11:53.973Z,100516.16
2023-02-02T22:14:34.560Z,100521.81
2023-02-02T22:17:19.296Z,100528.99
2023-02-02T22:19:51.709Z,100533.73
2023-02-02T22:22:27.910Z,100541.17
2023-02-02T22:25:05.627Z,100547.96
2023-02-02T22:27:48.036Z,100549.55
2023-02-02T22:30:27.486Z,100553.83
2023-02-02T22:32:59.440Z,100551.83
2023-02-02T22:35:31.003Z,100559.38
2023-02-02T22:38:03.045Z,100558.98
2023-02-02T22:40:34.962Z,100554.33
2023-02-02T22:43:08.176Z,100555.81
2023-02-02T22:45:39.978Z,100560.41
2023-02-02T22:48:13.605Z,100564.69
2023-02-02T22:50:45.316Z,100572.80
2023-02-02T22:53:16.943Z,100575.98
2023-02-02T22:55:48.505Z,100578.25
2023-02-02T22:58:20.012Z,100580.14
2023-02-02T23:00:51.853Z,100581.59
2023-02-02T23:03:23.493Z,100579.90
2023-02-02T23:05:55.207Z,100585.65
2023-02-02T23:08:26.918Z,100587.80
2023-02-02T23:10:58.573Z,100596.41
2023-02-02T23:13:30.664Z,100599.52
2023-02-02T23:16:02.271Z,100600.93
2023-02-02T23:18:34.042Z,100598.04
2023-02-02T23:21:05.678Z,100598.42
2023-02-02T23:23:37.335Z,100594.06
2023-02-02T23:26:09.103Z,100592.20
2023-02-02T23:28:40.678Z,100596.48
2023-02-02T23:31:12.538Z,100591.88
2023-02-02T23:33:44.055Z,100595.11
2023-02-02T23:36:15.551Z,100596.35
2023-02-02T23:38:47.099Z,100600.54
2023-02-02T23:41:19.259Z,100603.15
2023-02-02T23:43:50.692Z,100604.80
2023-02-02T23:46:22.550Z,100607.52
2023-02-02T23:48:54.363Z,100610.23
2023-02-02T23:51:25.906Z,100610.95
2023-02-02T23:53:58.050Z,100611.20
2023-02-02T23:56:29.815Z,100613.67
2023-02-02T23:59:01.333Z,100617.83
